createdAt,value
2022-12-17T00:01:25.022Z,28.77
2022-12-17T00:04:17.771Z,28.53
2022-12-17T00:07:18.938Z,27.67
2022-12-17T00:10:07.611Z,29.40
2022-12-17T00:12:56.468Z,28.37
2022-12-17T00:15:45.674Z,29.03
2022-12-17T00:18:35.818Z,27.93
2022-12-17T00:21:26.144Z,28.50
2022-12-17T00:24:13.643Z,27.67
2022-12-17T00:27:06.696Z,27.53
2022-12-17T00:29:54.658Z,27.10
2022-12-17T00:32:46.012Z,27.20
2022-12-17T00:35:36.181Z,28.20
2022-12-17T00:38:26.069Z,27.60
2022-12-17T00:41:31.077Z,26.07
2022-12-17T00:44:19.689Z,26.77
2022-12-17T00:47:06.135Z,26.60
2022-12-17T00:49:53.643Z,26.17
2022-12-17T00:52:49.701Z,26.57
2022-12-17T00:55:41.244Z,27.00
2022-12-17T00:58:31.617Z,27.37
2022-12-17T01:01:24.149Z,26.17
2022-12-17T01:04:15.690Z,27.77
2022-12-17T01:07:04.748Z,28.10
2022-12-17T01:09:52.082Z,27.83
2022-12-17T01:12:39.873Z,27.60
2022-12-17T01:15:27.846Z,27.30
2022-12-17T01:18:15.615Z,28.53
2022-12-17T01:21:02.617Z,28.27
2022-12-17T01:23:52.685Z,26.80
2022-12-17T01:26:39.550Z,28.43
2022-12-17T01:29:27.632Z,27.63
2022-12-17T01:32:14.457Z,26.87
2022-12-17T01:35:03.618Z,26.23
2022-12-17T01:37:55.780Z,26.77
2022-12-17T01:40:44.109Z,26.23
2022-12-17T01:43:55.841Z,26.83
2022-12-17T01:46:48.666Z,27.70
2022-12-17T01:49:38.674Z,27.17
2022-12-17T01:52:26.620Z,27.37
2022-12-17T01:55:16.935Z,26.63
2022-12-17T01:58:04.615Z,27.23
2022-12-17T02:00:53.351Z,26.70
2022-12-17T02:03:43.943Z,27.00
2022-12-17T02:06:52.811Z,27.07
2022-12-17T02:09:50.689Z,26.47
2022-12-17T02:12:55.329Z,26.70
2022-12-17T02:16:28.099Z,26.47
2022-12-17T02:19:26.832Z,25.87
2022-12-17T02:22:17.604Z,25.77
2022-12-17T02:25:11.054Z,26.87
2022-12-17T02:28:01.552Z,27.60
2022-12-17T02:30:52.936Z,25.97
2022-12-17T02:33:41.625Z,26.97
2022-12-17T02:36:31.887Z,25.60
2022-12-17T02:39:21.662Z,26.67
2022-12-17T02:42:19.731Z,25.63
2022-12-17T02:45:08.644Z,26.37
2022-12-17T02:47:57.619Z,26.03
2022-12-17T02:50:43.698Z,25.53
2022-12-17T02:53:32.783Z,25.10
2022-12-17T02:56:19.590Z,24.90
2022-12-17T02:59:06.590Z,24.67
2022-12-17T03:01:59.404Z,24.60
2022-12-17T03:04:46.623Z,24.93
2022-12-17T03:07:33.601Z,23.73
2022-12-17T03:10:22.866Z,24.10
2022-12-17T03:13:09.625Z,25.57
2022-12-17T03:15:58.676Z,24.63
2022-12-17T03:18:49.664Z,25.40
2022-12-17T03:21:36.618Z,24.37
2022-12-17T03:24:27.886Z,23.60
2022-12-17T03:27:17.651Z,24.40
2022-12-17T03:30:06.649Z,24.30
2022-12-17T03:32:53.614Z,24.97
2022-12-17T03:35:44.571Z,24.17
2022-12-17T03:38:32.568Z,23.93
2022-12-17T03:41:21.115Z,23.90
2022-12-17T03:44:07.782Z,24.40
2022-12-17T03:47:13.592Z,23.90
2022-12-17T03:50:01.844Z,23.53
2022-12-17T03:52:50.679Z,23.90
2022-12-17T03:55:42.163Z,24.67
2022-12-17T03:58:31.110Z,24.07
2022-12-17T04:01:22.326Z,24.03
2022-12-17T04:04:10.756Z,23.50
2022-12-17T04:06:58.513Z,23.23
2022-12-17T04:09:45.070Z,23.97
2022-12-17T04:12:33.923Z,24.60
2022-12-17T04:15:20.148Z,24.93
2022-12-17T04:18:07.091Z,23.97
2022-12-17T04:20:55.598Z,23.40
2022-12-17T04:23:45.392Z,24.20
2022-12-17T04:26:33.410Z,24.87
2022-12-17T04:29:23.548Z,24.57
2022-12-17T04:32:10.649Z,26.57
2022-12-17T04:35:02.085Z,24.57
2022-12-17T04:37:51.896Z,25.97
2022-12-17T04:40:45.683Z,25.83
2022-12-17T04:43:36.155Z,26.30
2022-12-17T04:46:28.711Z,26.30
2022-12-17T04:49:17.280Z,25.50
2022-12-17T04:52:19.572Z,25.70
2022-12-17T04:55:07.705Z,26.20
2022-12-17T04:57:57.888Z,25.87
2022-12-17T05:00:47.853Z,26.53
2022-12-17T05:03:36.910Z,25.23
2022-12-17T05:06:25.169Z,27.00
2022-12-17T05:09:13.561Z,26.13
2022-12-17T05:12:00.801Z,27.10
2022-12-17T05:14:50.617Z,26.70
2022-12-17T05:17:37.625Z,27.27
2022-12-17T05:20:24.746Z,27.23
2022-12-17T05:23:12.594Z,26.60
2022-12-17T05:26:01.588Z,25.97
2022-12-17T05:28:47.982Z,27.30
2022-12-17T05:31:34.946Z,26.63
2022-12-17T05:34:23.808Z,25.77
2022-12-17T05:37:13.960Z,27.07
2022-12-17T05:40:09.181Z,27.10
2022-12-17T05:43:03.601Z,27.50
2022-12-17T05:45:52.829Z,26.63
2022-12-17T05:48:40.556Z,25.57
2022-12-17T05:51:28.649Z,25.90
2022-12-17T05:54:18.252Z,26.47
2022-12-17T05:57:04.557Z,26.07
2022-12-17T05:59:56.259Z,26.53
2022-12-17T06:02:43.659Z,26.40
2022-12-17T06:05:30.773Z,26.53
2022-12-17T06:08:25.572Z,24.70
2022-12-17T06:11:18.640Z,25.20
2022-12-17T06:14:06.534Z,24.90
2022-12-17T06:16:58.012Z,26.00
2022-12-17T06:19:45.549Z,25.23
2022-12-17T06:22:37.468Z,25.40
2022-12-17T06:25:25.569Z,25.60
2022-12-17T06:28:21.825Z,24.90
2022-12-17T06:31:15.320Z,25.30
2022-12-17T06:34:03.513Z,26.03
2022-12-17T06:36:52.909Z,24.80
2022-12-17T06:39:40.808Z,25.50
2022-12-17T06:42:30.938Z,26.30
2022-12-17T06:45:23.629Z,25.93
2022-12-17T06:48:10.566Z,25.87
2022-12-17T06:50:59.625Z,26.47
2022-12-17T06:53:47.529Z,25.90
2022-12-17T06:56:37.599Z,25.50
2022-12-17T06:59:23.579Z,26.13
2022-12-17T07:02:11.651Z,25.87
2022-12-17T07:05:00.262Z,26.40
2022-12-17T07:07:47.550Z,26.83
2022-12-17T07:10:35.856Z,25.27
2022-12-17T07:13:27.566Z,26.20
2022-12-17T07:16:18.042Z,27.30
2022-12-17T07:19:08.716Z,26.57
2022-12-17T07:21:57.606Z,26.77
2022-12-17T07:24:49.336Z,27.70
2022-12-17T07:27:39.569Z,27.20
2022-12-17T07:30:28.629Z,28.43
2022-12-17T07:33:28.384Z,27.17
2022-12-17T07:36:16.523Z,28.23
2022-12-17T07:39:04.511Z,27.70
2022-12-17T07:41:52.173Z,28.40
2022-12-17T07:44:41.544Z,29.37
2022-12-17T07:47:27.808Z,29.40
2022-12-17T07:50:17.584Z,32.00
2022-12-17T07:53:04.531Z,32.20
2022-12-17T07:55:51.621Z,30.10
2022-12-17T07:58:38.732Z,32.13
2022-12-17T08:01:27.406Z,33.40
2022-12-17T08:04:14.544Z,33.77
2022-12-17T08:07:10.285Z,32.27
2022-12-17T08:10:00.829Z,28.20
2022-12-17T08:12:48.519Z,26.97
2022-12-17T08:15:35.538Z,29.37
2022-12-17T08:18:26.379Z,28.73
2022-12-17T08:21:19.485Z,30.27
2022-12-17T08:24:09.568Z,28.93
2022-12-17T08:26:57.972Z,28.83
2022-12-17T08:29:47.700Z,32.27
2022-12-17T08:32:36.100Z,29.87
2022-12-17T08:35:24.582Z,32.43
2022-12-17T08:38:16.189Z,32.73
2022-12-17T08:44:14.661Z,35.13
2022-12-17T08:47:05.877Z,36.33
2022-12-17T08:49:53.541Z,32.40
2022-12-17T08:52:41.578Z,34.27
2022-12-17T08:55:28.512Z,32.60
2022-12-17T08:58:19.866Z,30.57
2022-12-17T09:01:06.694Z,35.87
2022-12-17T09:03:55.889Z,32.30
2022-12-17T09:06:43.341Z,30.30
2022-12-17T09:09:33.641Z,28.70
2022-12-17T09:12:21.373Z,29.10
2022-12-17T09:15:07.565Z,29.60
2022-12-17T09:17:55.505Z,28.37
2022-12-17T09:20:42.552Z,29.27
2022-12-17T09:23:29.741Z,28.07
2022-12-17T09:26:18.523Z,28.13
2022-12-17T09:29:06.723Z,28.10
2022-12-17T09:31:55.576Z,28.97
2022-12-17T09:34:45.581Z,28.50
2022-12-17T09:37:33.737Z,28.10
2022-12-17T09:40:27.118Z,27.73
2022-12-17T09:43:30.801Z,29.67
2022-12-17T09:46:32.060Z,27.80
2022-12-17T09:49:38.127Z,27.93
2022-12-17T09:52:52.461Z,27.57
2022-12-17T09:55:48.762Z,28.00
2022-12-17T09:59:03.907Z,26.83
2022-12-17T10:01:55.611Z,27.37
2022-12-17T10:05:05.222Z,27.33
2022-12-17T10:07:59.573Z,27.97
2022-12-17T10:10:51.752Z,28.83
2022-12-17T10:13:41.483Z,27.77
2022-12-17T10:16:47.241Z,27.97
2022-12-17T10:19:49.578Z,28.10
2022-12-17T10:22:39.853Z,27.23
2022-12-17T10:25:38.435Z,27.13
2022-12-17T10:28:29.776Z,28.27
2022-12-17T10:31:21.659Z,28.27
2022-12-17T10:34:13.503Z,27.67
2022-12-17T10:37:05.507Z,26.90
2022-12-17T10:39:54.685Z,28.60
2022-12-17T10:42:50.782Z,27.67
2022-12-17T10:45:53.125Z,28.70
2022-12-17T10:48:49.746Z,29.03
2022-12-17T10:51:57.502Z,28.70
2022-12-17T10:54:49.667Z,28.37
2022-12-17T10:57:58.293Z,27.53
2022-12-17T11:00:56.487Z,28.17
2022-12-17T11:04:10.141Z,28.33
2022-12-17T11:07:10.170Z,28.67
2022-12-17T11:10:17.577Z,28.23
2022-12-17T11:13:12.409Z,28.73
2022-12-17T11:16:19.134Z,30.00
2022-12-17T11:19:29.103Z,28.53
2022-12-17T11:22:22.084Z,29.40
2022-12-17T11:25:49.288Z,29.37
2022-12-17T11:28:50.401Z,28.97
2022-12-17T11:31:57.823Z,30.73
2022-12-17T11:35:30.923Z,29.87
2022-12-17T11:38:19.517Z,28.53
2022-12-17T11:41:16.506Z,28.63
2022-12-17T11:44:20.090Z,28.90
2022-12-17T11:47:33.169Z,28.47
2022-12-17T11:50:53.074Z,27.87
2022-12-17T11:54:07.751Z,28.63
2022-12-17T11:57:07.950Z,28.10
2022-12-17T12:00:34.893Z,27.03
2022-12-17T12:03:48.329Z,27.13
2022-12-17T12:06:57.106Z,26.63
2022-12-17T12:09:44.691Z,26.60
2022-12-17T12:12:55.802Z,26.93
2022-12-17T12:16:14.051Z,28.53
2022-12-17T12:19:24.578Z,29.80
2022-12-17T12:22:24.716Z,27.23
2022-12-17T12:26:00.151Z,26.80
2022-12-17T12:29:10.594Z,25.70
2022-12-17T12:32:15.823Z,24.40
2022-12-17T12:35:04.477Z,24.60
2022-12-17T12:37:55.024Z,25.37
2022-12-17T12:41:13.477Z,24.73
2022-12-17T12:44:07.516Z,25.50
2022-12-17T12:47:19.494Z,25.87
2022-12-17T12:50:30.039Z,26.27
2022-12-17T12:53:22.452Z,26.47
2022-12-17T12:56:10.031Z,27.00
2022-12-17T12:58:57.597Z,25.37
2022-12-17T13:01:57.987Z,26.67
2022-12-17T13:04:57.210Z,26.97
2022-12-17T13:07:27.746Z,25.77
2022-12-17T13:09:58.609Z,26.57
2022-12-17T13:12:47.444Z,26.77
2022-12-17T13:15:40.670Z,26.17
2022-12-17T13:18:35.080Z,27.10
2022-12-17T13:21:29.719Z,26.57
2022-12-17T13:23:59.039Z,25.27
2022-12-17T13:26:45.640Z,24.90
2022-12-17T13:29:37.152Z,25.17
2022-12-17T13:32:40.474Z,25.10
2022-12-17T13:35:42.044Z,23.63
2022-12-17T13:38:22.722Z,24.87
2022-12-17T13:41:30.572Z,23.77
2022-12-17T13:44:18.896Z,23.70
2022-12-17T13:46:51.099Z,24.67
2022-12-17T13:49:30.749Z,23.83
2022-12-17T13:52:12.003Z,23.90
2022-12-17T13:54:42.565Z,24.93
2022-12-17T13:57:26.292Z,24.47
2022-12-17T13:59:57.591Z,25.77
2022-12-17T14:02:37.022Z,25.10
2022-12-17T14:05:21.650Z,25.17
2022-12-17T14:07:54.221Z,27.27
2022-12-17T14:10:24.318Z,27.03
2022-12-17T14:13:02.287Z,26.80
2022-12-17T14:15:35.148Z,27.33
2022-12-17T14:18:08.393Z,28.97
2022-12-17T14:20:39.484Z,27.63
2022-12-17T14:23:23.966Z,28.07
2022-12-17T14:25:52.905Z,28.90
2022-12-17T14:28:36.143Z,28.47
2022-12-17T14:31:29.152Z,30.03
2022-12-17T14:34:17.350Z,30.73
2022-12-17T14:36:51.483Z,31.43
2022-12-17T14:39:26.646Z,31.13
2022-12-17T14:42:27.963Z,31.03
2022-12-17T14:45:21.911Z,31.37
2022-12-17T14:47:58.293Z,32.23
2022-12-17T14:50:54.802Z,32.73
2022-12-17T14:53:28.046Z,33.63
2022-12-17T14:55:59.651Z,31.10
2022-12-17T15:01:13.586Z,32.17
2022-12-17T15:03:44.246Z,31.03
2022-12-17T15:06:20.484Z,31.97
2022-12-17T15:08:50.628Z,32.40
2022-12-17T15:11:22.062Z,32.10
2022-12-17T15:13:56.670Z,32.37
2022-12-17T15:16:25.687Z,31.23
2022-12-17T15:18:57.910Z,31.97
2022-12-17T15:21:29.040Z,31.40
2022-12-17T15:23:59.695Z,32.03
2022-12-17T15:26:30.133Z,31.87
2022-12-17T15:28:58.620Z,31.67
2022-12-17T15:31:31.912Z,31.40
2022-12-17T15:34:05.580Z,31.60
2022-12-17T15:36:35.135Z,31.50
2022-12-17T15:39:13.463Z,33.30
2022-12-17T15:42:01.581Z,33.23
2022-12-17T15:44:35.854Z,31.47
2022-12-17T15:47:05.878Z,31.93
2022-12-17T15:49:35.068Z,31.97
2022-12-17T15:52:05.739Z,32.23
2022-12-17T15:54:35.877Z,33.33
2022-12-17T15:57:18.216Z,32.40
2022-12-17T15:59:49.858Z,33.30
2022-12-17T16:02:22.700Z,32.37
2022-12-17T16:05:00.664Z,31.10
2022-12-17T16:07:29.608Z,29.83
2022-12-17T16:10:04.547Z,31.00
2022-12-17T16:12:42.320Z,30.73
2022-12-17T16:15:11.743Z,29.33
2022-12-17T16:17:41.424Z,29.33
2022-12-17T16:20:12.296Z,28.37
2022-12-17T16:22:40.444Z,27.07
2022-12-17T16:25:10.046Z,26.57
2022-12-17T16:27:42.034Z,27.47
2022-12-17T16:30:14.696Z,25.30
2022-12-17T16:32:42.142Z,24.27
2022-12-17T16:35:09.682Z,23.30
2022-12-17T16:37:38.291Z,21.50
2022-12-17T16:40:09.866Z,19.83
2022-12-17T16:42:39.880Z,21.10
2022-12-17T16:45:11.251Z,19.60
2022-12-17T16:47:40.210Z,17.23
2022-12-17T16:50:08.289Z,18.73
2022-12-17T16:52:39.743Z,18.00
2022-12-17T16:55:09.853Z,18.17
2022-12-17T16:57:40.745Z,17.90
2022-12-17T17:00:12.200Z,17.47
2022-12-17T17:02:42.211Z,18.10
2022-12-17T17:05:11.011Z,16.97
2022-12-17T17:07:42.715Z,15.73
2022-12-17T17:10:11.687Z,16.17
2022-12-17T17:12:42.939Z,16.23
2022-12-17T17:15:20.465Z,15.90
2022-12-17T17:18:01.999Z,15.47
2022-12-17T17:20:35.519Z,15.83
2022-12-17T17:23:05.236Z,15.97
2022-12-17T17:25:57.686Z,15.93
2022-12-17T17:28:33.117Z,15.17
2022-12-17T17:31:02.382Z,19.07
2022-12-17T17:33:38.850Z,20.17
2022-12-17T17:36:12.191Z,21.13
2022-12-17T17:38:41.909Z,22.17
2022-12-17T17:41:14.600Z,17.27
2022-12-17T17:43:43.340Z,15.47
2022-12-17T17:46:20.989Z,16.27
2022-12-17T17:48:56.813Z,16.23
2022-12-17T17:52:08.397Z,14.53
2022-12-17T17:54:28.747Z,15.17
2022-12-17T17:56:59.558Z,15.00
2022-12-17T17:59:33.367Z,14.57
2022-12-17T18:02:03.194Z,13.90
2022-12-17T18:04:32.979Z,14.33
2022-12-17T18:09:50.295Z,14.27
2022-12-17T18:12:38.101Z,15.63
2022-12-17T18:15:16.370Z,15.03
2022-12-17T18:17:51.134Z,14.43
2022-12-17T18:20:23.833Z,13.47
2022-12-17T18:22:55.198Z,14.93
2022-12-17T18:25:27.115Z,15.23
2022-12-17T18:28:00.551Z,14.57
2022-12-17T18:30:33.374Z,13.70
2022-12-17T18:33:02.307Z,14.60
2022-12-17T18:35:35.016Z,14.90
2022-12-17T18:38:04.737Z,13.93
2022-12-17T18:40:36.337Z,14.10
2022-12-17T18:43:24.180Z,14.53
2022-12-17T18:45:57.082Z,14.00
2022-12-17T18:48:27.181Z,14.40
2022-12-17T18:50:57.570Z,13.60
2022-12-17T18:53:32.111Z,13.47
2022-12-17T18:56:44.839Z,13.93
2022-12-17T18:59:29.446Z,14.73
2022-12-17T19:02:01.322Z,13.40
2022-12-17T19:04:30.556Z,12.90
2022-12-17T19:07:01.129Z,13.33
2022-12-17T19:09:36.588Z,12.83
2022-12-17T19:12:07.543Z,12.53
2022-12-17T19:14:36.494Z,12.00
2022-12-17T19:17:08.422Z,12.60
2022-12-17T19:19:38.070Z,11.87
2022-12-17T19:22:06.149Z,13.30
2022-12-17T19:24:35.318Z,12.90
2022-12-17T19:27:06.881Z,12.60
2022-12-17T19:29:37.771Z,12.83
2022-12-17T19:32:06.060Z,13.13
2022-12-17T19:34:35.293Z,11.50
2022-12-17T19:37:04.952Z,11.97
2022-12-17T19:39:39.206Z,11.77
2022-12-17T19:42:28.374Z,12.03
2022-12-17T19:47:43.548Z,12.53
2022-12-17T19:50:11.349Z,12.60
2022-12-17T19:52:40.070Z,11.80
2022-12-17T19:55:10.195Z,11.37
2022-12-17T19:57:39.808Z,11.93
2022-12-17T20:00:10.795Z,11.40
2022-12-17T20:02:44.823Z,11.40
2022-12-17T20:05:13.907Z,12.07
2022-12-17T20:07:44.708Z,12.33
2022-12-17T20:10:12.381Z,14.37
2022-12-17T20:12:43.406Z,13.13
2022-12-17T20:15:12.621Z,13.37
2022-12-17T20:17:42.676Z,13.40
2022-12-17T20:20:14.865Z,13.67
2022-12-17T20:22:44.367Z,13.30
2022-12-17T20:25:12.151Z,13.20
2022-12-17T20:27:44.523Z,11.20
2022-12-17T20:30:12.652Z,10.80
2022-12-17T20:32:43.124Z,11.13
2022-12-17T20:35:11.374Z,10.93
2022-12-17T20:37:44.051Z,10.30
2022-12-17T20:40:22.555Z,9.73
2022-12-17T20:42:51.868Z,10.30
2022-12-17T20:45:20.034Z,10.97
2022-12-17T20:50:31.565Z,10.30
2022-12-17T20:53:01.940Z,10.50
2022-12-17T20:55:34.511Z,10.70
2022-12-17T20:58:03.907Z,10.30
2022-12-17T21:00:34.156Z,10.77
2022-12-17T21:03:02.462Z,10.97
2022-12-17T21:05:33.701Z,9.83
2022-12-17T21:08:02.271Z,9.53
2022-12-17T21:10:32.748Z,10.50
2022-12-17T21:13:23.597Z,10.47
2022-12-17T21:15:56.433Z,10.53
2022-12-17T21:18:24.183Z,10.43
2022-12-17T21:21:03.296Z,11.27
2022-12-17T21:23:32.942Z,11.33
2022-12-17T21:26:24.353Z,10.50
2022-12-17T21:28:56.616Z,11.30
2022-12-17T21:31:28.535Z,11.50
2022-12-17T21:34:08.776Z,10.30
2022-12-17T21:36:36.660Z,10.30
2022-12-17T21:39:10.436Z,11.10
2022-12-17T21:41:44.795Z,11.13
2022-12-17T21:44:15.531Z,10.93
2022-12-17T21:46:49.875Z,11.03
2022-12-17T21:49:21.323Z,10.37
2022-12-17T21:51:52.471Z,11.50
2022-12-17T21:54:21.231Z,11.17
2022-12-17T21:56:58.550Z,11.10
2022-12-17T21:59:26.984Z,10.47
2022-12-17T22:01:57.771Z,10.90
2022-12-17T22:04:26.541Z,11.17
2022-12-17T22:06:59.575Z,10.97
2022-12-17T22:10:13.151Z,11.27
2022-12-17T22:12:56.089Z,11.67
2022-12-17T22:15:41.523Z,10.73
2022-12-17T22:18:20.011Z,11.40
2022-12-17T22:21:00.099Z,11.27
2022-12-17T22:23:31.139Z,10.90
2022-12-17T22:26:02.255Z,11.40
2022-12-17T22:28:32.385Z,12.43
2022-12-17T22:31:25.028Z,11.37
2022-12-17T22:35:20.736Z,11.40
2022-12-17T22:40:07.684Z,11.57
2022-12-17T22:44:29.346Z,11.83
2022-12-17T22:44:34.649Z,12.17
2022-12-17T22:45:28.304Z,12.70
2022-12-17T22:47:55.713Z,11.47
2022-12-17T22:50:30.036Z,10.97
2022-12-17T22:53:03.590Z,11.10
2022-12-17T22:55:33.224Z,10.37
2022-12-17T22:58:03.606Z,10.87
2022-12-17T23:00:35.373Z,9.63
2022-12-17T23:03:04.728Z,10.10
2022-12-17T23:05:36.543Z,9.67
2022-12-17T23:08:09.610Z,9.30
2022-12-17T23:10:37.986Z,9.73
2022-12-17T23:13:06.308Z,10.10
2022-12-17T23:15:36.681Z,8.80
2022-12-17T23:18:07.361Z,8.60
2022-12-17T23:20:40.455Z,8.73
2022-12-17T23:23:11.481Z,9.00
2022-12-17T23:25:39.979Z,8.83
2022-12-17T23:28:12.381Z,8.57
2022-12-17T23:30:42.273Z,8.90
2022-12-17T23:33:12.462Z,8.80
2022-12-17T23:35:42.110Z,8.63
2022-12-17T23:38:12.447Z,9.63
2022-12-17T23:40:42.797Z,9.33
2022-12-17T23:43:17.303Z,9.17
2022-12-17T23:45:45.911Z,8.07
2022-12-17T23:48:13.873Z,8.90
2022-12-17T23:50:43.595Z,8.33
2022-12-17T23:53:18.107Z,8.27
2022-12-17T23:55:47.665Z,8.43
2022-12-17T23:58:16.468Z,7.90
